createdAt,value
2022-09-01T00:00:02.634Z,97066.00
2022-09-01T00:02:31.027Z,97065.00
2022-09-01T00:04:58.559Z,97074.00
2022-09-01T00:07:29.921Z,97066.00
2022-09-01T00:09:56.645Z,97068.00
2022-09-01T00:12:25.588Z,97058.00
2022-09-01T00:14:52.885Z,97060.00
2022-09-01T00:17:19.733Z,97063.00
2022-09-01T00:19:46.562Z,97065.00
2022-09-01T00:22:13.676Z,97052.00
2022-09-01T00:24:40.793Z,97058.00
2022-09-01T00:27:07.772Z,97062.00
2022-09-01T00:29:36.320Z,97055.00
2022-09-01T00:32:03.854Z,97046.00
2022-09-01T00:34:30.615Z,97052.00
2022-09-01T00:36:57.648Z,97048.00
2022-09-01T00:39:24.470Z,97060.00
2022-09-01T00:41:51.486Z,97046.00
2022-09-01T00:44:24.694Z,97049.00
2022-09-01T00:46:55.347Z,97044.00
2022-09-01T00:49:41.838Z,97046.00
2022-09-01T00:52:16.934Z,97045.00
2022-09-01T00:54:54.062Z,97042.00
2022-09-01T00:57:21.476Z,97042.00
2022-09-01T00:59:59.208Z,97044.00
2022-09-01T01:02:26.413Z,97041.00
2022-09-01T01:08:27.148Z,97046.00
2022-09-01T01:10:57.538Z,97043.00
2022-09-01T01:13:26.060Z,97046.00
2022-09-01T01:15:54.623Z,97042.00
2022-09-01T01:18:28.372Z,97041.00
2022-09-01T01:21:38.995Z,97036.00
2022-09-01T01:24:25.916Z,97033.00
2022-09-01T01:26:55.708Z,97034.00
2022-09-01T01:29:30.194Z,97026.00
2022-09-01T01:31:56.975Z,97033.00
2022-09-01T01:34:24.574Z,97031.00
2022-09-01T01:36:51.977Z,97030.00
2022-09-01T01:39:25.309Z,97035.00
2022-09-01T01:42:19.610Z,97037.00
2022-09-01T01:45:31.623Z,97033.00
2022-09-01T01:48:35.132Z,97034.00
2022-09-01T01:51:41.010Z,97028.00
2022-09-01T01:54:42.338Z,97036.00
2022-09-01T01:57:09.319Z,97028.00
2022-09-01T01:59:38.496Z,97036.00
2022-09-01T02:02:08.531Z,97036.00
2022-09-01T02:04:36.167Z,97031.00
2022-09-01T02:07:02.962Z,97034.00
2022-09-01T02:09:29.743Z,97030.00
2022-09-01T02:11:57.290Z,97027.00
2022-09-01T02:14:24.483Z,97030.00
2022-09-01T02:16:55.047Z,97037.00
2022-09-01T02:19:21.979Z,97029.00
2022-09-01T02:21:54.198Z,97030.00
2022-09-01T02:24:21.425Z,97038.00
2022-09-01T02:26:48.896Z,97030.00
2022-09-01T02:29:21.858Z,97030.00
2022-09-01T02:31:52.404Z,97025.00
2022-09-01T02:34:23.951Z,97029.00
2022-09-01T02:36:57.046Z,97025.00
2022-09-01T02:39:28.658Z,97031.00
2022-09-01T02:41:56.583Z,97026.00
2022-09-01T02:44:23.486Z,97024.00
2022-09-01T02:46:51.067Z,97028.00
2022-09-01T02:49:29.693Z,97023.00
2022-09-01T02:52:01.217Z,97021.00
2022-09-01T02:54:31.447Z,97032.00
2022-09-01T02:56:58.496Z,97029.00
2022-09-01T02:59:28.863Z,97031.00
2022-09-01T03:01:57.445Z,97037.00
2022-09-01T03:04:24.938Z,97030.00
2022-09-01T03:06:54.727Z,97029.00
2022-09-01T03:09:22.552Z,97035.00
2022-09-01T03:11:52.187Z,97029.00
2022-09-01T03:14:19.960Z,97032.00
2022-09-01T03:16:47.126Z,97030.00
2022-09-01T03:19:15.068Z,97019.00
2022-09-01T03:21:44.900Z,97021.00
2022-09-01T03:24:16.722Z,97019.00
2022-09-01T03:26:45.200Z,97016.00
2022-09-01T03:29:17.062Z,97027.00
2022-09-01T03:31:43.970Z,97023.00
2022-09-01T03:34:11.088Z,97027.00
2022-09-01T03:36:39.680Z,97028.00
2022-09-01T03:39:14.546Z,97025.00
2022-09-01T03:41:43.489Z,97025.00
2022-09-01T03:44:12.047Z,97019.00
2022-09-01T03:46:40.409Z,97017.00
2022-09-01T03:49:08.038Z,97012.00
2022-09-01T03:51:36.034Z,97013.00
2022-09-01T03:54:02.801Z,97016.00
2022-09-01T03:56:29.936Z,97008.00
2022-09-01T03:58:59.410Z,97020.00
2022-09-01T04:01:28.981Z,97016.00
2022-09-01T04:03:56.098Z,97021.00
2022-09-01T04:06:24.265Z,97011.00
2022-09-01T04:09:02.445Z,97011.00
2022-09-01T04:11:31.889Z,97003.00
2022-09-01T04:13:59.646Z,97007.00
2022-09-01T04:16:51.052Z,97010.00
2022-09-01T04:19:26.613Z,97008.00
2022-09-01T04:22:00.597Z,97005.00
2022-09-01T04:24:31.081Z,97011.00
2022-09-01T04:27:02.077Z,97013.00
2022-09-01T04:29:29.568Z,97016.00
2022-09-01T04:32:02.551Z,97024.00
2022-09-01T04:34:37.032Z,97015.00
2022-09-01T04:37:21.041Z,97018.00
2022-09-01T04:39:57.140Z,97015.00
2022-09-01T04:42:29.276Z,97012.00
2022-09-01T04:44:57.386Z,97016.00
2022-09-01T04:47:35.467Z,97011.00
2022-09-01T04:50:14.939Z,97018.00
2022-09-01T04:52:44.183Z,97017.00
2022-09-01T04:55:19.470Z,97018.00
2022-09-01T04:57:49.975Z,97017.00
2022-09-01T05:00:23.853Z,97015.00
2022-09-01T05:03:03.309Z,97013.00
2022-09-01T05:05:44.276Z,97019.00
2022-09-01T05:08:23.198Z,97014.00
2022-09-01T05:10:53.727Z,97019.00
2022-09-01T05:13:23.459Z,97023.00
2022-09-01T05:16:03.675Z,97017.00
2022-09-01T05:18:30.667Z,97011.00
2022-09-01T05:20:57.635Z,97012.00
2022-09-01T05:23:26.415Z,97018.00
2022-09-01T05:25:54.831Z,97009.00
2022-09-01T05:28:39.943Z,97009.00
2022-09-01T05:31:07.733Z,97018.00
2022-09-01T05:36:54.593Z,97017.00
2022-09-01T05:39:21.767Z,97017.00
2022-09-01T05:41:49.313Z,97019.00
2022-09-01T05:44:16.980Z,97018.00
2022-09-01T05:46:44.475Z,97020.00
2022-09-01T05:49:13.898Z,97012.00
2022-09-01T05:51:46.211Z,97018.00
2022-09-01T05:54:21.485Z,97008.00
2022-09-01T05:56:49.606Z,97019.00
2022-09-01T05:59:25.390Z,97015.00
2022-09-01T06:01:54.544Z,97023.00
2022-09-01T06:04:23.205Z,97015.00
2022-09-01T06:07:07.734Z,97021.00
2022-09-01T06:09:40.653Z,97022.00
2022-09-01T06:12:17.829Z,97018.00
2022-09-01T06:14:47.363Z,97025.00
2022-09-01T06:17:16.347Z,97023.00
2022-09-01T06:19:44.140Z,97023.00
2022-09-01T06:22:11.493Z,97032.00
2022-09-01T06:24:43.874Z,97030.00
2022-09-01T06:27:12.876Z,97037.00
2022-09-01T06:29:39.741Z,97033.00
2022-09-01T06:32:09.757Z,97040.00
2022-09-01T06:34:42.295Z,97043.00
2022-09-01T06:37:10.857Z,97039.00
2022-09-01T06:39:38.169Z,97039.00
2022-09-01T06:42:06.703Z,97034.00
2022-09-01T06:44:33.868Z,97042.00
2022-09-01T06:47:01.141Z,97034.00
2022-09-01T06:49:34.771Z,97037.00
2022-09-01T06:52:03.055Z,97045.00
2022-09-01T06:54:34.304Z,97049.00
2022-09-01T06:59:52.607Z,97046.00
2022-09-01T07:02:22.382Z,97053.00
2022-09-01T07:04:53.653Z,97054.00
2022-09-01T07:10:25.373Z,97049.00
2022-09-01T07:13:06.114Z,97042.00
2022-09-01T07:18:25.292Z,97054.00
2022-09-01T07:21:36.988Z,97054.00
2022-09-01T07:24:07.873Z,97053.00
2022-09-01T07:26:29.562Z,97057.00
2022-09-01T07:32:43.532Z,97055.00
2022-09-01T07:34:40.117Z,97052.00
2022-09-01T07:39:55.648Z,97063.00
2022-09-01T07:42:59.008Z,97055.00
2022-09-01T07:45:28.844Z,97051.00
2022-09-01T07:48:03.612Z,97055.00
2022-09-01T07:50:40.874Z,97048.00
2022-09-01T07:53:22.464Z,97056.00
2022-09-01T07:55:52.485Z,97058.00
2022-09-01T07:58:24.490Z,97052.00
2022-09-01T08:00:53.175Z,97060.00
2022-09-01T08:03:24.859Z,97059.00
2022-09-01T08:05:57.627Z,97061.00
2022-09-01T08:08:28.980Z,97062.00
2022-09-01T08:11:04.377Z,97066.00
2022-09-01T08:13:37.318Z,97080.00
2022-09-01T08:16:39.976Z,97076.00
2022-09-01T08:19:16.674Z,97075.00
2022-09-01T08:21:43.613Z,97078.00
2022-09-01T08:24:10.408Z,97084.00
2022-09-01T08:26:37.503Z,97077.00
2022-09-01T08:29:04.955Z,97082.00
2022-09-01T08:31:32.520Z,97081.00
2022-09-01T08:34:00.082Z,97088.00
2022-09-01T08:36:27.074Z,97081.00
2022-09-01T08:38:54.235Z,97081.00
2022-09-01T08:41:37.614Z,97087.00
2022-09-01T08:44:29.514Z,97090.00
2022-09-01T08:47:07.906Z,97091.00
2022-09-01T08:49:45.880Z,97082.00
2022-09-01T08:52:34.697Z,97088.00
2022-09-01T08:55:22.209Z,97096.00
2022-09-01T08:57:54.815Z,97092.00
2022-09-01T09:00:36.954Z,97086.00
2022-09-01T09:03:40.488Z,97090.00
2022-09-01T09:06:37.609Z,97097.00
2022-09-01T09:09:08.427Z,97093.00
2022-09-01T09:11:53.339Z,97091.00
2022-09-01T09:14:44.650Z,97092.00
2022-09-01T09:17:13.319Z,97087.00
2022-09-01T09:19:44.799Z,97079.00
2022-09-01T09:22:16.774Z,97080.00
2022-09-01T09:24:50.856Z,97090.00
2022-09-01T09:27:35.952Z,97083.00
2022-09-01T09:30:27.282Z,97086.00
2022-09-01T09:33:37.542Z,97081.00
2022-09-01T09:35:54.943Z,97075.00
2022-09-01T09:38:33.617Z,97078.00
2022-09-01T09:41:25.623Z,97073.00
2022-09-01T09:44:12.455Z,97078.00
2022-09-01T09:46:43.639Z,97066.00
2022-09-01T09:49:36.123Z,97070.00
2022-09-01T09:52:10.380Z,97068.00
2022-09-01T09:55:00.514Z,97062.00
2022-09-01T09:57:30.061Z,97063.00
2022-09-01T10:00:16.548Z,97058.00
2022-09-01T10:02:45.894Z,97056.00
2022-09-01T10:05:44.748Z,97055.00
2022-09-01T10:08:45.417Z,97057.00
2022-09-01T10:11:42.639Z,97050.00
2022-09-01T10:14:51.688Z,97053.00
2022-09-01T10:17:23.049Z,97046.00
2022-09-01T10:20:04.970Z,97042.00
2022-09-01T10:22:33.728Z,97044.00
2022-09-01T10:25:01.683Z,97038.00
2022-09-01T10:27:40.740Z,97044.00
2022-09-01T10:30:20.697Z,97034.00
2022-09-01T10:33:06.747Z,97038.00
2022-09-01T10:35:44.360Z,97038.00
2022-09-01T10:38:24.523Z,97030.00
2022-09-01T10:41:14.915Z,97023.00
2022-09-01T10:43:49.352Z,97023.00
2022-09-01T10:46:26.605Z,97029.00
2022-09-01T10:49:03.434Z,97025.00
2022-09-01T10:51:36.212Z,97032.00
2022-09-01T10:54:06.661Z,97026.00
2022-09-01T10:56:52.723Z,97023.00
2022-09-01T10:59:37.292Z,97027.00
2022-09-01T11:02:26.878Z,97016.00
2022-09-01T11:04:55.047Z,97016.00
2022-09-01T11:07:50.549Z,97020.00
2022-09-01T11:10:59.597Z,97014.00
2022-09-01T11:14:08.482Z,97016.00
2022-09-01T11:17:17.650Z,97013.00
2022-09-01T11:20:58.581Z,97001.00
2022-09-01T11:23:48.704Z,97009.00
2022-09-01T11:26:56.153Z,97013.00
2022-09-01T11:30:01.104Z,97011.00
2022-09-01T11:33:16.625Z,97008.00
2022-09-01T11:36:14.379Z,97003.00
2022-09-01T11:39:23.170Z,97002.00
2022-09-01T11:42:46.856Z,97002.00
2022-09-01T11:45:21.517Z,97004.00
2022-09-01T11:48:16.759Z,97001.00
2022-09-01T11:50:43.644Z,97003.00
2022-09-01T11:53:23.223Z,97002.00
2022-09-01T11:55:52.790Z,96996.00
2022-09-01T11:58:28.844Z,96993.00
2022-09-01T12:01:00.502Z,96990.00
2022-09-01T12:03:30.341Z,96993.00
2022-09-01T12:06:07.346Z,96989.00
2022-09-01T12:08:39.328Z,96987.00
2022-09-01T12:11:18.593Z,96988.00
2022-09-01T12:14:11.394Z,96987.00
2022-09-01T12:16:42.461Z,96989.00
2022-09-01T12:19:24.920Z,96985.00
2022-09-01T12:22:14.960Z,96990.00
2022-09-01T12:24:47.929Z,96985.00
2022-09-01T12:27:15.185Z,96986.00
2022-09-01T12:29:43.121Z,96985.00
2022-09-01T12:32:11.413Z,96985.00
2022-09-01T12:34:59.990Z,96981.00
2022-09-01T12:37:27.707Z,96980.00
2022-09-01T12:39:57.512Z,96982.00
2022-09-01T12:42:40.678Z,96981.00
2022-09-01T12:45:11.115Z,96975.00
2022-09-01T12:47:38.338Z,96973.00
2022-09-01T12:50:29.641Z,96981.00
2022-09-01T12:53:02.017Z,96977.00
2022-09-01T12:55:48.715Z,96975.00
2022-09-01T12:58:25.581Z,96981.00
2022-09-01T13:01:08.871Z,96987.00
2022-09-01T13:03:42.981Z,96976.00
2022-09-01T13:06:10.010Z,96975.00
2022-09-01T13:08:37.774Z,96978.00
2022-09-01T13:11:11.250Z,96970.00
2022-09-01T13:13:38.520Z,96972.00
2022-09-01T13:16:12.890Z,96970.00
2022-09-01T13:21:31.421Z,96966.00
2022-09-01T13:23:58.717Z,96956.00
2022-09-01T13:26:26.242Z,96958.00
2022-09-01T13:28:53.803Z,96954.00
2022-09-01T13:31:36.346Z,96953.00
2022-09-01T13:34:20.436Z,96955.00
2022-09-01T13:36:52.546Z,96956.00
2022-09-01T13:39:21.018Z,96958.00
2022-09-01T13:41:49.374Z,96956.00
2022-09-01T13:44:18.047Z,96943.00
2022-09-01T13:47:28.553Z,96948.00
2022-09-01T13:52:21.567Z,96951.00
2022-09-01T13:54:48.362Z,96943.00
2022-09-01T13:57:16.310Z,96952.00
2022-09-01T13:59:43.375Z,96951.00
2022-09-01T14:02:10.970Z,96954.00
2022-09-01T14:04:38.464Z,96945.00
2022-09-01T14:07:05.707Z,96937.00
2022-09-01T14:09:32.469Z,96936.00
2022-09-01T14:11:59.388Z,96928.00
2022-09-01T14:14:26.423Z,96925.00
2022-09-01T14:16:53.932Z,96922.00
2022-09-01T14:19:21.185Z,96919.00
2022-09-01T14:21:49.605Z,96916.00
2022-09-01T14:24:19.864Z,96919.00
2022-09-01T14:26:47.539Z,96914.00
2022-09-01T14:29:14.302Z,96916.00
2022-09-01T14:31:43.390Z,96920.00
2022-09-01T14:34:12.180Z,96920.00
2022-09-01T14:36:39.123Z,96912.00
2022-09-01T14:39:06.224Z,96920.00
2022-09-01T14:41:33.145Z,96919.00
2022-09-01T14:44:03.293Z,96917.00
2022-09-01T14:46:33.755Z,96922.00
2022-09-01T14:49:02.105Z,96918.00
2022-09-01T14:54:18.187Z,96918.00
2022-09-01T14:57:28.375Z,96920.00
2022-09-01T14:59:33.063Z,96914.00
2022-09-01T15:02:00.122Z,96921.00
2022-09-01T15:04:27.829Z,96925.00
2022-09-01T15:06:55.501Z,96922.00
2022-09-01T15:09:22.846Z,96920.00
2022-09-01T15:11:49.638Z,96914.00
2022-09-01T15:14:16.569Z,96907.00
2022-09-01T15:16:43.651Z,96918.00
2022-09-01T15:19:13.415Z,96905.00
2022-09-01T15:21:42.892Z,96905.00
2022-09-01T15:24:10.499Z,96900.00
2022-09-01T15:26:40.863Z,96900.00
2022-09-01T15:29:13.084Z,96911.00
2022-09-01T15:31:40.119Z,96900.00
2022-09-01T15:34:07.331Z,96906.00
2022-09-01T15:36:40.511Z,96907.00
2022-09-01T15:39:10.140Z,96909.00
2022-09-01T15:41:38.050Z,96905.00
2022-09-01T15:44:08.070Z,96901.00
2022-09-01T15:46:38.900Z,96903.00
2022-09-01T15:49:10.147Z,96892.00
2022-09-01T15:51:43.443Z,96906.00
2022-09-01T15:54:14.572Z,96906.00
2022-09-01T15:56:42.876Z,96913.00
2022-09-01T15:59:10.881Z,96907.00
2022-09-01T16:01:41.679Z,96910.00
2022-09-01T16:04:15.869Z,96909.00
2022-09-01T16:06:45.020Z,96912.00
2022-09-01T16:09:17.718Z,96907.00
2022-09-01T16:11:55.739Z,96907.00
2022-09-01T16:14:36.065Z,96904.00
2022-09-01T16:17:38.628Z,96899.00
2022-09-01T16:21:01.910Z,96901.00
2022-09-01T16:24:30.602Z,96902.00
2022-09-01T16:26:57.691Z,96903.00
2022-09-01T16:29:53.345Z,96894.00
2022-09-01T16:32:23.166Z,96893.00
2022-09-01T16:34:52.132Z,96901.00
2022-09-01T16:37:25.051Z,96895.00
2022-09-01T16:39:55.262Z,96898.00
2022-09-01T16:42:42.944Z,96895.00
2022-09-01T16:45:42.744Z,96893.00
2022-09-01T16:48:41.300Z,96899.00
2022-09-01T16:52:06.638Z,96897.00
2022-09-01T16:55:05.447Z,96893.00
2022-09-01T16:57:59.052Z,96900.00
2022-09-01T17:00:38.599Z,96895.00
2022-09-01T17:03:19.568Z,96894.00
2022-09-01T17:06:13.106Z,96892.00
2022-09-01T17:08:52.590Z,96897.00
2022-09-01T17:11:34.328Z,96891.00
2022-09-01T17:14:02.765Z,96897.00
2022-09-01T17:16:42.557Z,96901.00
2022-09-01T17:19:17.612Z,96903.00
2022-09-01T17:21:56.038Z,96897.00
2022-09-01T17:24:42.598Z,96904.00
2022-09-01T17:27:21.404Z,96899.00
2022-09-01T17:29:52.630Z,96904.00
2022-09-01T17:32:48.261Z,96907.00
2022-09-01T17:35:46.132Z,96910.00
2022-09-01T17:38:54.437Z,96901.00
2022-09-01T17:41:38.927Z,96909.00
2022-09-01T17:44:45.352Z,96921.00
2022-09-01T17:47:41.215Z,96917.00
2022-09-01T17:50:30.235Z,96920.00
2022-09-01T17:53:21.780Z,96922.00
2022-09-01T17:56:18.103Z,96926.00
2022-09-01T17:59:26.666Z,96928.00
2022-09-01T18:02:40.894Z,96924.00
2022-09-01T18:05:19.582Z,96928.00
2022-09-01T18:08:30.448Z,96926.00
2022-09-01T18:11:23.671Z,96929.00
2022-09-01T18:13:59.907Z,96928.00
2022-09-01T18:16:32.276Z,96926.00
2022-09-01T18:19:05.655Z,96933.00
2022-09-01T18:21:40.383Z,96926.00
2022-09-01T18:24:52.008Z,96929.00
2022-09-01T18:27:18.850Z,96926.00
2022-09-01T18:29:52.005Z,96941.00
2022-09-01T18:32:30.515Z,96928.00
2022-09-01T18:35:31.543Z,96951.00
2022-09-01T18:38:36.022Z,96941.00
2022-09-01T18:41:24.974Z,96947.00
2022-09-01T18:44:41.367Z,96950.00
2022-09-01T18:47:12.706Z,96946.00
2022-09-01T18:50:06.992Z,96947.00
2022-09-01T18:53:22.433Z,96946.00
2022-09-01T18:56:17.048Z,96945.00
2022-09-01T18:59:02.894Z,96947.00
2022-09-01T19:01:40.754Z,96948.00
2022-09-01T19:04:35.750Z,96946.00
2022-09-01T19:07:23.553Z,96946.00
2022-09-01T19:10:08.763Z,96953.00
2022-09-01T19:13:13.130Z,96945.00
2022-09-01T19:16:13.796Z,96957.00
2022-09-01T19:18:55.876Z,96959.00
2022-09-01T19:21:32.916Z,96951.00
2022-09-01T19:24:13.896Z,96949.00
2022-09-01T19:26:45.560Z,96957.00
2022-09-01T19:29:29.999Z,96944.00
2022-09-01T19:32:02.465Z,96949.00
2022-09-01T19:34:44.348Z,96951.00
2022-09-01T19:37:12.362Z,96948.00
2022-09-01T19:39:45.323Z,96960.00
2022-09-01T19:42:39.200Z,96953.00
2022-09-01T19:45:36.340Z,96956.00
2022-09-01T19:48:43.511Z,96958.00
2022-09-01T19:51:32.150Z,96958.00
2022-09-01T19:54:22.493Z,96950.00
2022-09-01T19:57:13.336Z,96950.00
2022-09-01T19:59:46.043Z,96951.00
2022-09-01T20:02:36.877Z,96950.00
2022-09-01T20:05:13.235Z,96948.00
2022-09-01T20:08:03.442Z,96954.00
2022-09-01T20:10:49.684Z,96943.00
2022-09-01T20:14:00.747Z,96940.00
2022-09-01T20:16:40.099Z,96943.00
2022-09-01T20:19:56.598Z,96939.00
2022-09-01T20:22:55.335Z,96944.00
2022-09-01T20:25:37.739Z,96941.00
2022-09-01T20:28:17.672Z,96938.00
2022-09-01T20:30:53.275Z,96933.00
2022-09-01T20:33:44.136Z,96922.00
2022-09-01T20:36:35.405Z,96926.00
2022-09-01T20:39:33.765Z,96924.00
2022-09-01T20:42:09.911Z,96925.00
2022-09-01T20:44:58.416Z,96920.00
2022-09-01T20:47:29.448Z,96919.00
2022-09-01T20:50:03.930Z,96914.00
2022-09-01T20:53:33.873Z,96915.00
2022-09-01T20:56:09.797Z,96920.00
2022-09-01T20:58:42.013Z,96920.00
2022-09-01T21:01:39.512Z,96926.00
2022-09-01T21:04:50.873Z,96922.00
2022-09-01T21:07:41.858Z,96923.00
2022-09-01T21:10:20.159Z,96929.00
2022-09-01T21:13:10.888Z,96931.00
2022-09-01T21:15:50.880Z,96929.00
2022-09-01T21:18:51.436Z,96927.00
2022-09-01T21:21:33.099Z,96929.00
2022-09-01T21:23:59.887Z,96923.00
2022-09-01T21:26:26.726Z,96921.00
2022-09-01T21:28:56.275Z,96918.00
2022-09-01T21:31:24.329Z,96921.00
2022-09-01T21:33:51.943Z,96919.00
2022-09-01T21:36:18.817Z,96921.00
2022-09-01T21:38:45.594Z,96912.00
2022-09-01T21:41:13.328Z,96916.00
2022-09-01T21:43:45.378Z,96912.00
2022-09-01T21:46:14.583Z,96918.00
2022-09-01T21:48:41.653Z,96908.00
2022-09-01T21:51:08.445Z,96912.00
2022-09-01T21:53:35.376Z,96908.00
2022-09-01T21:56:02.360Z,96909.00
2022-09-01T21:58:29.422Z,96903.00
2022-09-01T22:00:58.289Z,96908.00
2022-09-01T22:03:25.097Z,96906.00
2022-09-01T22:05:52.379Z,96906.00
2022-09-01T22:08:19.403Z,96905.00
2022-09-01T22:10:51.883Z,96903.00
2022-09-01T22:13:21.930Z,96910.00
2022-09-01T22:15:53.111Z,96897.00
2022-09-01T22:18:21.643Z,96898.00
2022-09-01T22:20:48.827Z,96898.00
2022-09-01T22:23:16.313Z,96895.00
2022-09-01T22:25:46.340Z,96896.00
2022-09-01T22:28:14.123Z,96895.00
2022-09-01T22:30:46.980Z,96902.00
2022-09-01T22:33:14.243Z,96893.00
2022-09-01T22:35:44.672Z,96893.00
2022-09-01T22:38:11.902Z,96895.00
2022-09-01T22:40:57.092Z,96886.00
2022-09-01T22:43:24.628Z,96886.00
2022-09-01T22:45:53.019Z,96883.00
2022-09-01T22:48:26.008Z,96883.00
2022-09-01T22:50:53.304Z,96878.00
2022-09-01T22:53:22.597Z,96879.00
2022-09-01T22:55:51.798Z,96883.00
2022-09-01T22:58:19.531Z,96881.00
2022-09-01T23:00:50.373Z,96879.00
2022-09-01T23:03:19.523Z,96878.00
2022-09-01T23:05:47.578Z,96880.00
2022-09-01T23:08:16.327Z,96881.00
2022-09-01T23:10:43.227Z,96876.00
2022-09-01T23:13:10.207Z,96877.00
2022-09-01T23:15:37.987Z,96874.00
2022-09-01T23:18:04.913Z,96873.00
2022-09-01T23:20:31.705Z,96878.00
2022-09-01T23:22:58.555Z,96871.00
2022-09-01T23:25:25.430Z,96880.00
2022-09-01T23:27:52.215Z,96875.00
2022-09-01T23:30:19.037Z,96859.00
2022-09-01T23:32:46.052Z,96864.00
2022-09-01T23:35:13.463Z,96865.00
2022-09-01T23:37:40.421Z,96858.00
2022-09-01T23:40:08.885Z,96859.00
2022-09-01T23:42:36.039Z,96856.00
2022-09-01T23:45:03.031Z,96846.00
2022-09-01T23:47:31.118Z,96843.00
2022-09-01T23:49:57.987Z,96849.00
2022-09-01T23:52:24.836Z,96851.00
2022-09-01T23:54:51.746Z,96848.00
2022-09-01T23:57:19.078Z,96844.00
2022-09-01T23:59:46.363Z,96845.00
